sensor_id;sensor_type;location;lat;lon;timestamp;P1;durP1;ratioP1;P2;durP2;ratioP2
12407;SDS011;6268;48.188;17.134;2023-03-01T00:01:51;14.90;;;10.63;;
12407;SDS011;6268;48.188;17.134;2023-03-01T00:04:20;12.43;;;10.27;;
12407;SDS011;6268;48.188;17.134;2023-03-01T00:06:49;13.47;;;9.80;;
12407;SDS011;6268;48.188;17.134;2023-03-01T00:09:18;14.17;;;9.63;;
12407;SDS011;6268;48.188;17.134;2023-03-01T00:11:47;12.30;;;9.67;;
12407;SDS011;6268;48.188;17.134;2023-03-01T00:14:16;11.17;;;9.37;;
12407;SDS011;6268;48.188;17.134;2023-03-01T00:16:46;12.03;;;8.27;;
12407;SDS011;6268;48.188;17.134;2023-03-01T00:19:16;10.67;;;8.40;;
12407;SDS011;6268;48.188;17.134;2023-03-01T00:21:48;14.93;;;9.83;;
12407;SDS011;6268;48.188;17.134;2023-03-01T00:24:17;19.77;;;13.10;;
12407;SDS011;6268;48.188;17.134;2023-03-01T00:26:46;19.47;;;14.27;;
12407;SDS011;6268;48.188;17.134;2023-03-01T00:29:15;19.80;;;13.70;;
12407;SDS011;6268;48.188;17.134;2023-03-01T00:31:43;20.83;;;15.13;;
12407;SDS011;6268;48.188;17.134;2023-03-01T00:34:14;15.93;;;12.03;;
12407;SDS011;6268;48.188;17.134;2023-03-01T00:36:42;14.80;;;10.53;;
12407;SDS011;6268;48.188;17.134;2023-03-01T00:39:13;17.67;;;12.23;;
12407;SDS011;6268;48.188;17.134;2023-03-01T00:41:43;13.40;;;10.67;;
12407;SDS011;6268;48.188;17.134;2023-03-01T00:44:12;14.63;;;10.03;;
12407;SDS011;6268;48.188;17.134;2023-03-01T00:46:41;14.10;;;10.53;;
12407;SDS011;6268;48.188;17.134;2023-03-01T00:49:10;11.13;;;9.50;;
12407;SDS011;6268;48.188;17.134;2023-03-01T00:51:40;14.67;;;10.63;;
12407;SDS011;6268;48.188;17.134;2023-03-01T00:54:09;18.80;;;11.17;;
12407;SDS011;6268;48.188;17.134;2023-03-01T00:56:38;14.70;;;10.77;;
12407;SDS011;6268;48.188;17.134;2023-03-01T00:59:07;13.67;;;10.97;;
12407;SDS011;6268;48.188;17.134;2023-03-01T01:01:35;15.63;;;11.30;;
12407;SDS011;6268;48.188;17.134;2023-03-01T01:04:05;13.60;;;10.87;;
12407;SDS011;6268;48.188;17.134;2023-03-01T01:06:38;16.37;;;11.90;;
12407;SDS011;6268;48.188;17.134;2023-03-01T01:09:11;20.43;;;12.10;;
12407;SDS011;6268;48.188;17.134;2023-03-01T01:11:44;14.83;;;11.43;;
12407;SDS011;6268;48.188;17.134;2023-03-01T01:14:15;15.07;;;11.03;;
12407;SDS011;6268;48.188;17.134;2023-03-01T01:16:45;14.93;;;11.77;;
12407;SDS011;6268;48.188;17.134;2023-03-01T01:19:14;14.53;;;10.87;;
12407;SDS011;6268;48.188;17.134;2023-03-01T01:21:44;16.40;;;10.57;;
12407;SDS011;6268;48.188;17.134;2023-03-01T01:24:14;12.20;;;10.40;;
12407;SDS011;6268;48.188;17.134;2023-03-01T01:26:44;14.30;;;10.60;;
12407;SDS011;6268;48.188;17.134;2023-03-01T01:29:13;14.47;;;10.73;;
12407;SDS011;6268;48.188;17.134;2023-03-01T01:31:42;16.00;;;11.90;;
12407;SDS011;6268;48.188;17.134;2023-03-01T01:34:13;16.07;;;11.97;;
12407;SDS011;6268;48.188;17.134;2023-03-01T01:36:48;16.07;;;12.07;;
12407;SDS011;6268;48.188;17.134;2023-03-01T01:39:19;17.27;;;12.17;;
12407;SDS011;6268;48.188;17.134;2023-03-01T01:41:49;17.40;;;12.23;;
12407;SDS011;6268;48.188;17.134;2023-03-01T01:44:19;18.70;;;12.60;;
12407;SDS011;6268;48.188;17.134;2023-03-01T01:46:50;15.87;;;12.30;;
12407;SDS011;6268;48.188;17.134;2023-03-01T01:49:25;15.57;;;11.93;;
12407;SDS011;6268;48.188;17.134;2023-03-01T01:52:04;16.33;;;12.93;;
12407;SDS011;6268;48.188;17.134;2023-03-01T01:54:39;17.80;;;13.07;;
12407;SDS011;6268;48.188;17.134;2023-03-01T01:57:14;18.37;;;13.47;;
12407;SDS011;6268;48.188;17.134;2023-03-01T01:59:50;14.83;;;12.43;;
12407;SDS011;6268;48.188;17.134;2023-03-01T02:02:22;17.17;;;13.67;;
12407;SDS011;6268;48.188;17.134;2023-03-01T02:04:53;16.90;;;12.53;;
12407;SDS011;6268;48.188;17.134;2023-03-01T02:07:32;15.67;;;13.53;;
12407;SDS011;6268;48.188;17.134;2023-03-01T02:10:01;14.73;;;12.53;;
12407;SDS011;6268;48.188;17.134;2023-03-01T02:12:31;16.73;;;12.37;;
12407;SDS011;6268;48.188;17.134;2023-03-01T02:15:02;19.17;;;13.63;;
12407;SDS011;6268;48.188;17.134;2023-03-01T02:17:32;19.60;;;13.77;;
12407;SDS011;6268;48.188;17.134;2023-03-01T02:20:04;16.57;;;13.20;;
12407;SDS011;6268;48.188;17.134;2023-03-01T02:22:49;17.60;;;13.40;;
12407;SDS011;6268;48.188;17.134;2023-03-01T02:28:26;16.97;;;13.37;;
12407;SDS011;6268;48.188;17.134;2023-03-01T02:30:58;17.53;;;14.10;;
12407;SDS011;6268;48.188;17.134;2023-03-01T02:33:46;17.20;;;12.87;;
12407;SDS011;6268;48.188;17.134;2023-03-01T02:36:17;18.07;;;13.57;;
12407;SDS011;6268;48.188;17.134;2023-03-01T02:38:50;16.83;;;13.13;;
12407;SDS011;6268;48.188;17.134;2023-03-01T02:41:23;19.93;;;14.47;;
12407;SDS011;6268;48.188;17.134;2023-03-01T02:44:01;18.13;;;13.67;;
12407;SDS011;6268;48.188;17.134;2023-03-01T02:46:30;15.80;;;13.27;;
12407;SDS011;6268;48.188;17.134;2023-03-01T02:48:59;18.43;;;14.40;;
12407;SDS011;6268;48.188;17.134;2023-03-01T02:51:37;18.67;;;14.87;;
12407;SDS011;6268;48.188;17.134;2023-03-01T02:54:21;17.33;;;13.80;;
12407;SDS011;6268;48.188;17.134;2023-03-01T02:56:59;15.77;;;13.43;;
12407;SDS011;6268;48.188;17.134;2023-03-01T02:59:32;17.37;;;13.93;;
12407;SDS011;6268;48.188;17.134;2023-03-01T03:02:06;16.77;;;13.27;;
12407;SDS011;6268;48.188;17.134;2023-03-01T03:04:35;16.63;;;13.87;;
12407;SDS011;6268;48.188;17.134;2023-03-01T03:07:04;18.57;;;14.23;;
12407;SDS011;6268;48.188;17.134;2023-03-01T03:09:33;17.20;;;13.60;;
12407;SDS011;6268;48.188;17.134;2023-03-01T03:12:02;16.90;;;13.77;;
12407;SDS011;6268;48.188;17.134;2023-03-01T03:14:33;15.93;;;14.20;;
12407;SDS011;6268;48.188;17.134;2023-03-01T03:17:01;21.23;;;13.43;;
12407;SDS011;6268;48.188;17.134;2023-03-01T03:19:33;15.83;;;13.53;;
12407;SDS011;6268;48.188;17.134;2023-03-01T03:22:02;17.73;;;13.83;;
12407;SDS011;6268;48.188;17.134;2023-03-01T03:24:30;19.53;;;14.30;;
12407;SDS011;6268;48.188;17.134;2023-03-01T03:27:05;18.83;;;13.70;;
12407;SDS011;6268;48.188;17.134;2023-03-01T03:29:36;18.03;;;13.93;;
12407;SDS011;6268;48.188;17.134;2023-03-01T03:32:05;19.87;;;14.90;;
12407;SDS011;6268;48.188;17.134;2023-03-01T03:34:34;16.70;;;14.27;;
12407;SDS011;6268;48.188;17.134;2023-03-01T03:37:02;16.10;;;14.33;;
12407;SDS011;6268;48.188;17.134;2023-03-01T03:39:51;19.20;;;14.53;;
12407;SDS011;6268;48.188;17.134;2023-03-01T03:42:21;16.40;;;14.37;;
12407;SDS011;6268;48.188;17.134;2023-03-01T03:44:52;18.80;;;14.20;;
12407;SDS011;6268;48.188;17.134;2023-03-01T03:47:20;17.00;;;14.83;;
12407;SDS011;6268;48.188;17.134;2023-03-01T03:49:49;17.43;;;14.87;;
12407;SDS011;6268;48.188;17.134;2023-03-01T03:52:18;17.07;;;14.03;;
12407;SDS011;6268;48.188;17.134;2023-03-01T03:54:47;16.97;;;14.47;;
12407;SDS011;6268;48.188;17.134;2023-03-01T03:57:16;18.13;;;14.87;;
12407;SDS011;6268;48.188;17.134;2023-03-01T03:59:44;18.60;;;14.97;;
12407;SDS011;6268;48.188;17.134;2023-03-01T04:02:15;18.43;;;14.80;;
12407;SDS011;6268;48.188;17.134;2023-03-01T04:04:50;18.33;;;14.20;;
12407;SDS011;6268;48.188;17.134;2023-03-01T04:07:19;17.57;;;14.00;;
12407;SDS011;6268;48.188;17.134;2023-03-01T04:09:49;16.13;;;13.20;;
12407;SDS011;6268;48.188;17.134;2023-03-01T04:12:18;19.07;;;14.50;;
12407;SDS011;6268;48.188;17.134;2023-03-01T04:14:49;18.37;;;13.77;;
12407;SDS011;6268;48.188;17.134;2023-03-01T04:17:20;20.20;;;14.33;;
12407;SDS011;6268;48.188;17.134;2023-03-01T04:19:49;21.23;;;15.30;;
12407;SDS011;6268;48.188;17.134;2023-03-01T04:22:18;18.70;;;13.77;;
12407;SDS011;6268;48.188;17.134;2023-03-01T04:24:47;16.20;;;14.23;;
12407;SDS011;6268;48.188;17.134;2023-03-01T04:27:16;20.07;;;15.13;;
12407;SDS011;6268;48.188;17.134;2023-03-01T04:29:45;21.67;;;14.07;;
12407;SDS011;6268;48.188;17.134;2023-03-01T04:32:14;17.07;;;13.93;;
12407;SDS011;6268;48.188;17.134;2023-03-01T04:34:45;20.60;;;14.63;;
12407;SDS011;6268;48.188;17.134;2023-03-01T04:37:14;20.77;;;14.03;;
12407;SDS011;6268;48.188;17.134;2023-03-01T04:39:43;20.37;;;14.33;;
12407;SDS011;6268;48.188;17.134;2023-03-01T04:42:14;23.17;;;17.10;;
12407;SDS011;6268;48.188;17.134;2023-03-01T04:44:43;19.40;;;15.77;;
12407;SDS011;6268;48.188;17.134;2023-03-01T04:47:12;18.90;;;15.27;;
12407;SDS011;6268;48.188;17.134;2023-03-01T04:49:41;17.80;;;15.37;;
12407;SDS011;6268;48.188;17.134;2023-03-01T04:52:11;21.67;;;15.17;;
12407;SDS011;6268;48.188;17.134;2023-03-01T04:54:40;18.43;;;15.43;;
12407;SDS011;6268;48.188;17.134;2023-03-01T04:57:09;20.67;;;15.33;;
12407;SDS011;6268;48.188;17.134;2023-03-01T04:59:38;25.17;;;17.53;;
12407;SDS011;6268;48.188;17.134;2023-03-01T05:02:07;22.10;;;15.50;;
12407;SDS011;6268;48.188;17.134;2023-03-01T05:04:35;22.27;;;15.47;;
12407;SDS011;6268;48.188;17.134;2023-03-01T05:07:04;24.10;;;16.83;;
12407;SDS011;6268;48.188;17.134;2023-03-01T05:09:35;24.30;;;16.80;;
12407;SDS011;6268;48.188;17.134;2023-03-01T05:12:04;24.23;;;17.17;;
12407;SDS011;6268;48.188;17.134;2023-03-01T05:14:34;23.17;;;17.20;;
12407;SDS011;6268;48.188;17.134;2023-03-01T05:17:02;20.70;;;15.63;;
12407;SDS011;6268;48.188;17.134;2023-03-01T05:19:31;22.70;;;16.20;;
12407;SDS011;6268;48.188;17.134;2023-03-01T05:22:00;20.27;;;14.53;;
12407;SDS011;6268;48.188;17.134;2023-03-01T05:24:31;16.83;;;13.83;;
12407;SDS011;6268;48.188;17.134;2023-03-01T05:27:03;17.47;;;13.67;;
12407;SDS011;6268;48.188;17.134;2023-03-01T05:29:32;16.37;;;12.63;;
12407;SDS011;6268;48.188;17.134;2023-03-01T05:32:02;15.60;;;13.60;;
12407;SDS011;6268;48.188;17.134;2023-03-01T05:34:33;17.10;;;13.40;;
12407;SDS011;6268;48.188;17.134;2023-03-01T05:37:03;17.73;;;13.67;;
12407;SDS011;6268;48.188;17.134;2023-03-01T05:39:35;14.57;;;12.57;;
12407;SDS011;6268;48.188;17.134;2023-03-01T05:42:04;16.10;;;13.23;;
12407;SDS011;6268;48.188;17.134;2023-03-01T05:44:35;16.40;;;13.70;;
12407;SDS011;6268;48.188;17.134;2023-03-01T05:47:04;16.43;;;13.40;;
12407;SDS011;6268;48.188;17.134;2023-03-01T05:49:33;17.13;;;13.60;;
12407;SDS011;6268;48.188;17.134;2023-03-01T05:52:05;16.43;;;13.73;;
12407;SDS011;6268;48.188;17.134;2023-03-01T05:54:35;17.93;;;14.17;;
12407;SDS011;6268;48.188;17.134;2023-03-01T05:57:05;18.73;;;14.83;;
12407;SDS011;6268;48.188;17.134;2023-03-01T05:59:34;15.13;;;13.27;;
12407;SDS011;6268;48.188;17.134;2023-03-01T06:02:03;18.40;;;14.07;;
12407;SDS011;6268;48.188;17.134;2023-03-01T06:04:32;18.03;;;13.30;;
12407;SDS011;6268;48.188;17.134;2023-03-01T06:07:00;15.67;;;13.70;;
12407;SDS011;6268;48.188;17.134;2023-03-01T06:09:29;17.30;;;13.63;;
12407;SDS011;6268;48.188;17.134;2023-03-01T06:12:00;31.33;;;21.47;;
12407;SDS011;6268;48.188;17.134;2023-03-01T06:14:28;33.40;;;20.33;;
12407;SDS011;6268;48.188;17.134;2023-03-01T06:16:57;30.10;;;21.83;;
12407;SDS011;6268;48.188;17.134;2023-03-01T06:19:26;34.97;;;25.87;;
12407;SDS011;6268;48.188;17.134;2023-03-01T06:21:55;34.40;;;28.00;;
12407;SDS011;6268;48.188;17.134;2023-03-01T06:24:24;27.97;;;24.77;;
12407;SDS011;6268;48.188;17.134;2023-03-01T06:26:55;20.60;;;18.40;;
12407;SDS011;6268;48.188;17.134;2023-03-01T06:29:25;22.03;;;16.77;;
12407;SDS011;6268;48.188;17.134;2023-03-01T06:31:54;19.67;;;16.23;;
12407;SDS011;6268;48.188;17.134;2023-03-01T06:34:23;17.67;;;13.80;;
12407;SDS011;6268;48.188;17.134;2023-03-01T06:36:52;19.73;;;13.50;;
12407;SDS011;6268;48.188;17.134;2023-03-01T06:39:21;18.27;;;13.63;;
12407;SDS011;6268;48.188;17.134;2023-03-01T06:41:49;17.93;;;13.70;;
12407;SDS011;6268;48.188;17.134;2023-03-01T06:44:20;18.93;;;15.03;;
12407;SDS011;6268;48.188;17.134;2023-03-01T06:46:50;18.50;;;13.57;;
12407;SDS011;6268;48.188;17.134;2023-03-01T06:49:19;18.13;;;13.90;;
12407;SDS011;6268;48.188;17.134;2023-03-01T06:51:48;17.70;;;14.77;;
12407;SDS011;6268;48.188;17.134;2023-03-01T06:54:17;20.80;;;15.60;;
12407;SDS011;6268;48.188;17.134;2023-03-01T06:56:48;20.10;;;14.90;;
12407;SDS011;6268;48.188;17.134;2023-03-01T06:59:18;18.00;;;14.70;;
12407;SDS011;6268;48.188;17.134;2023-03-01T07:01:46;20.60;;;15.73;;
12407;SDS011;6268;48.188;17.134;2023-03-01T07:04:17;16.27;;;14.03;;
12407;SDS011;6268;48.188;17.134;2023-03-01T07:06:45;16.47;;;13.97;;
12407;SDS011;6268;48.188;17.134;2023-03-01T07:09:21;17.07;;;13.93;;
12407;SDS011;6268;48.188;17.134;2023-03-01T07:11:51;18.57;;;15.67;;
12407;SDS011;6268;48.188;17.134;2023-03-01T07:14:20;19.37;;;15.87;;
12407;SDS011;6268;48.188;17.134;2023-03-01T07:16:50;18.33;;;16.13;;
12407;SDS011;6268;48.188;17.134;2023-03-01T07:19:21;19.10;;;15.37;;
12407;SDS011;6268;48.188;17.134;2023-03-01T07:21:50;18.60;;;15.00;;
12407;SDS011;6268;48.188;17.134;2023-03-01T07:24:19;19.73;;;14.37;;
12407;SDS011;6268;48.188;17.134;2023-03-01T07:26:48;18.60;;;16.10;;
12407;SDS011;6268;48.188;17.134;2023-03-01T07:29:18;19.40;;;16.43;;
12407;SDS011;6268;48.188;17.134;2023-03-01T07:31:47;24.20;;;16.67;;
12407;SDS011;6268;48.188;17.134;2023-03-01T07:34:16;22.53;;;17.87;;
12407;SDS011;6268;48.188;17.134;2023-03-01T07:36:46;21.40;;;17.33;;
12407;SDS011;6268;48.188;17.134;2023-03-01T07:39:15;20.17;;;16.17;;
12407;SDS011;6268;48.188;17.134;2023-03-01T07:41:45;20.83;;;16.73;;
12407;SDS011;6268;48.188;17.134;2023-03-01T07:44:14;18.50;;;15.20;;
12407;SDS011;6268;48.188;17.134;2023-03-01T07:46:43;18.40;;;15.40;;
12407;SDS011;6268;48.188;17.134;2023-03-01T07:49:12;21.07;;;14.63;;
12407;SDS011;6268;48.188;17.134;2023-03-01T07:51:42;15.80;;;14.07;;
12407;SDS011;6268;48.188;17.134;2023-03-01T07:54:13;19.10;;;14.40;;
12407;SDS011;6268;48.188;17.134;2023-03-01T07:56:41;14.30;;;12.80;;
12407;SDS011;6268;48.188;17.134;2023-03-01T07:59:10;16.67;;;12.53;;
12407;SDS011;6268;48.188;17.134;2023-03-01T08:01:39;15.10;;;12.83;;
12407;SDS011;6268;48.188;17.134;2023-03-01T08:04:08;16.63;;;14.07;;
12407;SDS011;6268;48.188;17.134;2023-03-01T08:06:37;17.47;;;14.93;;
12407;SDS011;6268;48.188;17.134;2023-03-01T08:09:06;18.50;;;14.37;;
12407;SDS011;6268;48.188;17.134;2023-03-01T08:11:37;20.50;;;16.47;;
12407;SDS011;6268;48.188;17.134;2023-03-01T08:14:06;19.23;;;16.07;;
12407;SDS011;6268;48.188;17.134;2023-03-01T08:16:35;18.70;;;15.60;;
12407;SDS011;6268;48.188;17.134;2023-03-01T08:19:04;22.77;;;16.63;;
12407;SDS011;6268;48.188;17.134;2023-03-01T08:21:34;19.63;;;15.63;;
12407;SDS011;6268;48.188;17.134;2023-03-01T08:24:04;19.73;;;15.67;;
12407;SDS011;6268;48.188;17.134;2023-03-01T08:26:38;15.43;;;13.87;;
12407;SDS011;6268;48.188;17.134;2023-03-01T08:29:07;20.63;;;15.20;;
12407;SDS011;6268;48.188;17.134;2023-03-01T08:31:37;18.60;;;15.13;;
12407;SDS011;6268;48.188;17.134;2023-03-01T08:34:10;18.53;;;15.60;;
12407;SDS011;6268;48.188;17.134;2023-03-01T08:36:41;17.93;;;14.73;;
12407;SDS011;6268;48.188;17.134;2023-03-01T08:39:12;17.13;;;15.30;;
12407;SDS011;6268;48.188;17.134;2023-03-01T08:41:46;16.73;;;14.67;;
12407;SDS011;6268;48.188;17.134;2023-03-01T08:44:15;20.77;;;16.43;;
12407;SDS011;6268;48.188;17.134;2023-03-01T08:46:44;16.83;;;14.43;;
12407;SDS011;6268;48.188;17.134;2023-03-01T08:49:15;16.23;;;14.10;;
12407;SDS011;6268;48.188;17.134;2023-03-01T08:51:46;20.52;;;15.00;;
12407;SDS011;6268;48.188;17.134;2023-03-01T08:54:16;19.95;;;13.88;;
12407;SDS011;6268;48.188;17.134;2023-03-01T08:56:49;15.98;;;14.30;;
12407;SDS011;6268;48.188;17.134;2023-03-01T08:59:18;19.75;;;15.18;;
12407;SDS011;6268;48.188;17.134;2023-03-01T09:01:47;18.63;;;14.98;;
12407;SDS011;6268;48.188;17.134;2023-03-01T09:04:16;17.27;;;13.73;;
12407;SDS011;6268;48.188;17.134;2023-03-01T09:06:45;14.07;;;12.18;;
12407;SDS011;6268;48.188;17.134;2023-03-01T09:09:14;14.98;;;13.50;;
12407;SDS011;6268;48.188;17.134;2023-03-01T09:11:45;15.55;;;12.93;;
12407;SDS011;6268;48.188;17.134;2023-03-01T09:14:17;18.17;;;13.60;;
12407;SDS011;6268;48.188;17.134;2023-03-01T09:16:46;17.10;;;12.75;;
12407;SDS011;6268;48.188;17.134;2023-03-01T09:19:15;16.45;;;12.88;;
12407;SDS011;6268;48.188;17.134;2023-03-01T09:21:45;17.17;;;13.32;;
12407;SDS011;6268;48.188;17.134;2023-03-01T09:24:19;16.38;;;13.15;;
12407;SDS011;6268;48.188;17.134;2023-03-01T09:26:51;15.05;;;13.45;;
12407;SDS011;6268;48.188;17.134;2023-03-01T09:29:23;17.30;;;13.27;;
12407;SDS011;6268;48.188;17.134;2023-03-01T09:31:52;15.68;;;13.38;;
12407;SDS011;6268;48.188;17.134;2023-03-01T09:34:22;14.15;;;12.05;;
12407;SDS011;6268;48.188;17.134;2023-03-01T09:36:51;13.30;;;12.00;;
12407;SDS011;6268;48.188;17.134;2023-03-01T09:39:20;14.25;;;11.52;;
12407;SDS011;6268;48.188;17.134;2023-03-01T09:41:50;13.57;;;12.18;;
12407;SDS011;6268;48.188;17.134;2023-03-01T09:44:31;13.52;;;11.85;;
12407;SDS011;6268;48.188;17.134;2023-03-01T09:47:17;13.50;;;9.55;;
12407;SDS011;6268;48.188;17.134;2023-03-01T09:49:51;12.98;;;9.43;;
12407;SDS011;6268;48.188;17.134;2023-03-01T09:52:34;15.70;;;11.18;;
12407;SDS011;6268;48.188;17.134;2023-03-01T09:55:11;14.82;;;10.40;;
12407;SDS011;6268;48.188;17.134;2023-03-01T09:57:47;14.20;;;9.35;;
12407;SDS011;6268;48.188;17.134;2023-03-01T10:00:28;11.60;;;9.40;;
12407;SDS011;6268;48.188;17.134;2023-03-01T10:03:12;11.77;;;9.00;;
12407;SDS011;6268;48.188;17.134;2023-03-01T10:05:57;11.18;;;8.90;;
12407;SDS011;6268;48.188;17.134;2023-03-01T10:08:40;11.68;;;8.35;;
12407;SDS011;6268;48.188;17.134;2023-03-01T10:11:22;10.40;;;8.35;;
12407;SDS011;6268;48.188;17.134;2023-03-01T10:13:57;10.88;;;8.02;;
12407;SDS011;6268;48.188;17.134;2023-03-01T10:16:37;10.05;;;8.00;;
12407;SDS011;6268;48.188;17.134;2023-03-01T10:19:24;10.93;;;8.55;;
12407;SDS011;6268;48.188;17.134;2023-03-01T10:22:00;11.52;;;8.68;;
12407;SDS011;6268;48.188;17.134;2023-03-01T10:24:42;12.48;;;9.27;;
12407;SDS011;6268;48.188;17.134;2023-03-01T10:27:14;10.48;;;8.57;;
12407;SDS011;6268;48.188;17.134;2023-03-01T10:29:50;12.18;;;9.07;;
12407;SDS011;6268;48.188;17.134;2023-03-01T10:32:34;11.60;;;9.02;;
12407;SDS011;6268;48.188;17.134;2023-03-01T10:35:14;14.93;;;9.75;;
12407;SDS011;6268;48.188;17.134;2023-03-01T10:37:57;12.70;;;9.02;;
12407;SDS011;6268;48.188;17.134;2023-03-01T10:40:31;11.75;;;8.10;;
12407;SDS011;6268;48.188;17.134;2023-03-01T10:43:02;12.65;;;10.35;;
12407;SDS011;6268;48.188;17.134;2023-03-01T10:45:35;17.20;;;15.40;;
12407;SDS011;6268;48.188;17.134;2023-03-01T10:48:12;10.27;;;9.27;;
12407;SDS011;6268;48.188;17.134;2023-03-01T10:50:45;9.82;;;8.65;;
12407;SDS011;6268;48.188;17.134;2023-03-01T10:53:24;9.93;;;9.00;;
12407;SDS011;6268;48.188;17.134;2023-03-01T10:55:58;10.07;;;9.07;;
12407;SDS011;6268;48.188;17.134;2023-03-01T10:58:31;9.68;;;8.73;;
12407;SDS011;6268;48.188;17.134;2023-03-01T11:01:02;10.93;;;9.23;;
12407;SDS011;6268;48.188;17.134;2023-03-01T11:03:36;10.10;;;9.10;;
12407;SDS011;6268;48.188;17.134;2023-03-01T11:06:18;9.82;;;8.82;;
12407;SDS011;6268;48.188;17.134;2023-03-01T11:08:49;9.30;;;8.38;;
12407;SDS011;6268;48.188;17.134;2023-03-01T11:11:29;9.65;;;8.75;;
12407;SDS011;6268;48.188;17.134;2023-03-01T11:14:03;8.68;;;7.88;;
12407;SDS011;6268;48.188;17.134;2023-03-01T11:16:58;8.30;;;7.50;;
12407;SDS011;6268;48.188;17.134;2023-03-01T11:19:32;8.90;;;8.00;;
12407;SDS011;6268;48.188;17.134;2023-03-01T11:22:03;9.00;;;8.13;;
12407;SDS011;6268;48.188;17.134;2023-03-01T11:24:40;9.77;;;5.55;;
12407;SDS011;6268;48.188;17.134;2023-03-01T11:27:30;10.05;;;5.70;;
12407;SDS011;6268;48.188;17.134;2023-03-01T11:30:22;8.30;;;7.53;;
12407;SDS011;6268;48.188;17.134;2023-03-01T11:33:17;10.75;;;7.75;;
12407;SDS011;6268;48.188;17.134;2023-03-01T11:36:01;7.97;;;7.28;;
12407;SDS011;6268;48.188;17.134;2023-03-01T11:38:36;7.68;;;6.88;;
12407;SDS011;6268;48.188;17.134;2023-03-01T11:41:07;8.00;;;7.22;;
12407;SDS011;6268;48.188;17.134;2023-03-01T11:43:45;8.60;;;7.70;;
12407;SDS011;6268;48.188;17.134;2023-03-01T11:46:34;8.98;;;8.15;;
12407;SDS011;6268;48.188;17.134;2023-03-01T11:49:41;11.18;;;10.05;;
12407;SDS011;6268;48.188;17.134;2023-03-01T11:52:33;10.10;;;8.90;;
12407;SDS011;6268;48.188;17.134;2023-03-01T11:55:19;11.30;;;9.32;;
12407;SDS011;6268;48.188;17.134;2023-03-01T11:58:14;9.45;;;8.55;;
12407;SDS011;6268;48.188;17.134;2023-03-01T12:01:14;11.00;;;9.85;;
12407;SDS011;6268;48.188;17.134;2023-03-01T12:04:01;10.27;;;9.00;;
12407;SDS011;6268;48.188;17.134;2023-03-01T12:07:05;13.93;;;10.35;;
12407;SDS011;6268;48.188;17.134;2023-03-01T12:09:47;14.90;;;13.32;;
12407;SDS011;6268;48.188;17.134;2023-03-01T12:12:45;14.10;;;12.15;;
12407;SDS011;6268;48.188;17.134;2023-03-01T12:15:42;12.23;;;10.82;;
12407;SDS011;6268;48.188;17.134;2023-03-01T12:19:02;11.73;;;10.05;;
12407;SDS011;6268;48.188;17.134;2023-03-01T12:21:54;11.48;;;9.73;;
12407;SDS011;6268;48.188;17.134;2023-03-01T12:24:44;10.77;;;9.73;;
12407;SDS011;6268;48.188;17.134;2023-03-01T12:31:00;10.07;;;9.18;;
12407;SDS011;6268;48.188;17.134;2023-03-01T12:34:22;9.73;;;8.73;;
12407;SDS011;6268;48.188;17.134;2023-03-01T12:37:20;10.35;;;9.13;;
12407;SDS011;6268;48.188;17.134;2023-03-01T12:40:10;9.20;;;8.27;;
12407;SDS011;6268;48.188;17.134;2023-03-01T12:43:02;9.45;;;8.52;;
12407;SDS011;6268;48.188;17.134;2023-03-01T12:45:50;9.93;;;8.68;;
12407;SDS011;6268;48.188;17.134;2023-03-01T12:48:37;9.38;;;8.40;;
12407;SDS011;6268;48.188;17.134;2023-03-01T12:51:16;8.43;;;7.63;;
12407;SDS011;6268;48.188;17.134;2023-03-01T12:53:53;8.38;;;7.57;;
12407;SDS011;6268;48.188;17.134;2023-03-01T12:56:26;8.48;;;7.68;;
12407;SDS011;6268;48.188;17.134;2023-03-01T12:59:02;8.80;;;7.35;;
12407;SDS011;6268;48.188;17.134;2023-03-01T13:01:45;8.55;;;7.75;;
12407;SDS011;6268;48.188;17.134;2023-03-01T13:04:21;7.70;;;7.00;;
12407;SDS011;6268;48.188;17.134;2023-03-01T13:07:11;13.27;;;8.73;;
12407;SDS011;6268;48.188;17.134;2023-03-01T13:09:55;8.00;;;7.40;;
12407;SDS011;6268;48.188;17.134;2023-03-01T13:13:00;9.77;;;8.77;;
12407;SDS011;6268;48.188;17.134;2023-03-01T13:15:41;9.60;;;8.60;;
12407;SDS011;6268;48.188;17.134;2023-03-01T13:18:30;9.40;;;8.48;;
12407;SDS011;6268;48.188;17.134;2023-03-01T13:21:01;9.40;;;8.55;;
12407;SDS011;6268;48.188;17.134;2023-03-01T13:23:35;9.52;;;8.35;;
12407;SDS011;6268;48.188;17.134;2023-03-01T13:26:08;8.90;;;8.00;;
12407;SDS011;6268;48.188;17.134;2023-03-01T13:34:43;9.50;;;8.57;;
12407;SDS011;6268;48.188;17.134;2023-03-01T13:38:06;10.05;;;9.00;;
12407;SDS011;6268;48.188;17.134;2023-03-01T13:41:07;10.35;;;9.27;;
12407;SDS011;6268;48.188;17.134;2023-03-01T13:43:37;12.82;;;9.35;;
12407;SDS011;6268;48.188;17.134;2023-03-01T13:46:09;12.02;;;10.10;;
12407;SDS011;6268;48.188;17.134;2023-03-01T13:48:47;11.18;;;10.07;;
12407;SDS011;6268;48.188;17.134;2023-03-01T13:51:23;9.68;;;8.43;;
12407;SDS011;6268;48.188;17.134;2023-03-01T13:53:56;12.13;;;10.85;;
12407;SDS011;6268;48.188;17.134;2023-03-01T13:56:27;10.60;;;8.70;;
12407;SDS011;6268;48.188;17.134;2023-03-01T13:59:04;11.15;;;9.02;;
12407;SDS011;6268;48.188;17.134;2023-03-01T14:01:42;11.57;;;8.57;;
12407;SDS011;6268;48.188;17.134;2023-03-01T14:04:20;11.07;;;9.93;;
12407;SDS011;6268;48.188;17.134;2023-03-01T14:07:08;9.55;;;8.68;;
12407;SDS011;6268;48.188;17.134;2023-03-01T14:09:40;11.30;;;9.38;;
12407;SDS011;6268;48.188;17.134;2023-03-01T14:12:18;9.65;;;8.65;;
12407;SDS011;6268;48.188;17.134;2023-03-01T14:15:02;9.15;;;7.85;;
12407;SDS011;6268;48.188;17.134;2023-03-01T14:17:44;15.02;;;8.80;;
12407;SDS011;6268;48.188;17.134;2023-03-01T14:20:24;10.35;;;8.82;;
12407;SDS011;6268;48.188;17.134;2023-03-01T14:22:58;6.93;;;6.22;;
12407;SDS011;6268;48.188;17.134;2023-03-01T14:25:38;7.00;;;6.30;;
12407;SDS011;6268;48.188;17.134;2023-03-01T14:28:16;7.43;;;6.72;;
12407;SDS011;6268;48.188;17.134;2023-03-01T14:30:49;7.55;;;6.13;;
12407;SDS011;6268;48.188;17.134;2023-03-01T14:33:21;11.30;;;8.80;;
12407;SDS011;6268;48.188;17.134;2023-03-01T14:35:54;14.30;;;10.30;;
12407;SDS011;6268;48.188;17.134;2023-03-01T14:38:30;7.97;;;5.60;;
12407;SDS011;6268;48.188;17.134;2023-03-01T14:41:05;7.32;;;6.05;;
12407;SDS011;6268;48.188;17.134;2023-03-01T14:43:37;13.75;;;9.82;;
12407;SDS011;6268;48.188;17.134;2023-03-01T14:46:16;7.07;;;5.93;;
12407;SDS011;6268;48.188;17.134;2023-03-01T14:48:49;7.88;;;6.95;;
12407;SDS011;6268;48.188;17.134;2023-03-01T14:51:20;7.68;;;5.63;;
12407;SDS011;6268;48.188;17.134;2023-03-01T14:53:50;10.23;;;5.97;;
12407;SDS011;6268;48.188;17.134;2023-03-01T14:56:21;9.43;;;5.75;;
12407;SDS011;6268;48.188;17.134;2023-03-01T14:58:53;7.60;;;5.90;;
12407;SDS011;6268;48.188;17.134;2023-03-01T15:01:26;6.70;;;6.03;;
12407;SDS011;6268;48.188;17.134;2023-03-01T15:03:56;9.07;;;7.28;;
12407;SDS011;6268;48.188;17.134;2023-03-01T15:06:27;7.70;;;6.40;;
12407;SDS011;6268;48.188;17.134;2023-03-01T15:08:57;10.77;;;6.55;;
12407;SDS011;6268;48.188;17.134;2023-03-01T15:11:28;7.78;;;6.10;;
12407;SDS011;6268;48.188;17.134;2023-03-01T15:14:00;6.85;;;6.03;;
12407;SDS011;6268;48.188;17.134;2023-03-01T15:16:29;8.15;;;6.28;;
12407;SDS011;6268;48.188;17.134;2023-03-01T15:19:00;8.50;;;6.53;;
12407;SDS011;6268;48.188;17.134;2023-03-01T15:21:33;8.38;;;6.40;;